createdAt,value
2022-10-17T00:02:00.656Z,100536.66
2022-10-17T00:04:27.254Z,100535.97
2022-10-17T00:06:53.891Z,100544.44
2022-10-17T00:09:20.528Z,100534.22
2022-10-17T00:11:47.207Z,100545.41
2022-10-17T00:14:13.861Z,100535.81
2022-10-17T00:16:40.506Z,100533.38
2022-10-17T00:19:07.094Z,100537.72
2022-10-17T00:21:33.934Z,100529.09
2022-10-17T00:24:00.968Z,100529.69
2022-10-17T00:26:29.676Z,100537.47
2022-10-17T00:28:56.888Z,100538.94
2022-10-17T00:31:24.005Z,100519.25
2022-10-17T00:33:51.242Z,100518.50
2022-10-17T00:36:22.481Z,100509.16
2022-10-17T00:38:50.800Z,100497.66
2022-10-17T00:41:18.777Z,100500.38
2022-10-17T00:43:52.738Z,100490.94
2022-10-17T00:46:19.821Z,100490.00
2022-10-17T00:48:47.085Z,100495.03
2022-10-17T00:51:15.029Z,100492.63
2022-10-17T00:53:41.791Z,100492.53
2022-10-17T00:56:08.505Z,100494.28
2022-10-17T00:58:35.065Z,100483.88
2022-10-17T01:01:01.757Z,100479.66
2022-10-17T01:03:28.420Z,100482.41
2022-10-17T01:05:55.513Z,100472.03
2022-10-17T01:08:22.150Z,100466.88
2022-10-17T01:11:10.300Z,100463.25
2022-10-17T01:13:40.678Z,100458.75
2022-10-17T01:16:25.859Z,100447.72
2022-10-17T01:18:58.574Z,100457.19
2022-10-17T01:21:43.825Z,100447.63
2022-10-17T01:24:10.433Z,100450.00
2022-10-17T01:26:44.433Z,100435.50
2022-10-17T01:29:30.479Z,100432.09
2022-10-17T01:31:59.853Z,100424.38
2022-10-17T01:34:45.421Z,100425.31
2022-10-17T01:37:30.465Z,100426.94
2022-10-17T01:40:05.983Z,100412.22
2022-10-17T01:42:41.627Z,100410.34
2022-10-17T01:45:08.186Z,100412.16
2022-10-17T01:47:35.188Z,100412.94
2022-10-17T01:50:07.941Z,100412.94
2022-10-17T01:52:41.581Z,100405.41
2022-10-17T01:55:16.862Z,100412.81
2022-10-17T01:57:49.923Z,100407.88
2022-10-17T02:00:21.104Z,100400.91
2022-10-17T02:02:49.529Z,100384.28
2022-10-17T02:05:17.584Z,100392.00
2022-10-17T02:07:44.294Z,100401.38
2022-10-17T02:10:19.180Z,100395.31
2022-10-17T02:12:50.693Z,100388.44
2022-10-17T02:15:28.545Z,100398.56
2022-10-17T02:18:08.004Z,100398.44
2022-10-17T02:20:34.569Z,100388.38
2022-10-17T02:23:07.097Z,100395.16
2022-10-17T02:25:42.637Z,100393.41
2022-10-17T02:28:09.254Z,100389.81
2022-10-17T02:30:44.792Z,100395.06
2022-10-17T02:33:14.458Z,100390.69
2022-10-17T02:35:43.512Z,100376.88
2022-10-17T02:38:11.022Z,100383.50
2022-10-17T02:40:38.366Z,100393.06
2022-10-17T02:43:05.076Z,100380.19
2022-10-17T02:45:36.019Z,100385.22
2022-10-17T02:48:04.184Z,100379.28
2022-10-17T02:50:41.669Z,100386.78
2022-10-17T02:53:28.508Z,100375.72
2022-10-17T02:55:59.209Z,100365.38
2022-10-17T02:58:29.111Z,100373.13
2022-10-17T03:00:55.880Z,100365.44
2022-10-17T03:03:32.785Z,100365.44
2022-10-17T03:05:59.336Z,100366.28
2022-10-17T03:08:26.176Z,100363.88
2022-10-17T03:10:52.908Z,100360.28
2022-10-17T03:13:19.501Z,100365.38
2022-10-17T03:15:46.376Z,100352.97
2022-10-17T03:18:13.245Z,100363.25
2022-10-17T03:20:39.908Z,100362.53
2022-10-17T03:23:06.513Z,100348.69
2022-10-17T03:25:33.120Z,100339.22
2022-10-17T03:28:02.885Z,100336.59
2022-10-17T03:30:29.581Z,100324.56
2022-10-17T03:32:57.921Z,100312.59
2022-10-17T03:35:24.798Z,100320.41
2022-10-17T03:37:51.396Z,100320.31
2022-10-17T03:40:18.018Z,100313.50
2022-10-17T03:42:44.615Z,100302.28
2022-10-17T03:45:11.216Z,100306.44
2022-10-17T03:47:37.880Z,100289.38
2022-10-17T03:50:04.710Z,100288.38
2022-10-17T03:52:31.419Z,100296.09
2022-10-17T03:54:57.998Z,100293.50
2022-10-17T03:57:24.602Z,100284.16
2022-10-17T03:59:52.336Z,100286.75
2022-10-17T04:02:18.965Z,100299.50
2022-10-17T04:04:45.621Z,100297.75
2022-10-17T04:07:12.273Z,100284.25
2022-10-17T04:09:38.806Z,100279.16
2022-10-17T04:12:05.548Z,100286.06
2022-10-17T04:14:32.171Z,100285.09
2022-10-17T04:16:58.758Z,100259.66
2022-10-17T04:19:25.992Z,100277.63
2022-10-17T04:21:52.689Z,100275.13
2022-10-17T04:24:19.564Z,100273.22
2022-10-17T04:26:49.025Z,100279.38
2022-10-17T04:29:15.663Z,100281.16
2022-10-17T04:31:42.199Z,100273.47
2022-10-17T04:34:08.787Z,100264.13
2022-10-17T04:36:35.329Z,100251.34
2022-10-17T04:39:03.570Z,100248.06
2022-10-17T04:41:30.252Z,100254.00
2022-10-17T04:43:57.161Z,100248.97
2022-10-17T04:46:23.757Z,100243.72
2022-10-17T04:48:50.343Z,100257.34
2022-10-17T04:51:20.689Z,100257.47
2022-10-17T04:53:49.958Z,100245.63
2022-10-17T04:56:21.774Z,100231.78
2022-10-17T04:58:48.926Z,100242.25
2022-10-17T05:01:17.334Z,100228.53
2022-10-17T05:03:44.458Z,100238.75
2022-10-17T05:06:12.414Z,100231.88
2022-10-17T05:08:39.181Z,100235.50
2022-10-17T05:11:06.260Z,100222.66
2022-10-17T05:13:33.026Z,100232.31
2022-10-17T05:16:00.372Z,100221.25
2022-10-17T05:18:27.740Z,100222.16
2022-10-17T05:20:54.362Z,100236.78
2022-10-17T05:23:20.958Z,100227.28
2022-10-17T05:25:47.562Z,100222.25
2022-10-17T05:28:14.130Z,100231.09
2022-10-17T05:30:40.832Z,100222.59
2022-10-17T05:33:07.406Z,100217.56
2022-10-17T05:35:34.024Z,100205.69
2022-10-17T05:38:00.656Z,100199.81
2022-10-17T05:40:27.466Z,100202.47
2022-10-17T05:42:54.097Z,100211.25
2022-10-17T05:45:20.708Z,100232.69
2022-10-17T05:47:47.381Z,100216.31
2022-10-17T05:50:14.015Z,100217.22
2022-10-17T05:52:42.874Z,100192.63
2022-10-17T05:55:11.799Z,100188.50
2022-10-17T05:57:38.877Z,100176.69
2022-10-17T06:00:06.095Z,100175.72
2022-10-17T06:02:33.295Z,100179.38
2022-10-17T06:05:00.184Z,100181.97
2022-10-17T06:07:26.727Z,100189.56
2022-10-17T06:09:53.372Z,100186.41
2022-10-17T06:12:19.912Z,100179.63
2022-10-17T06:14:46.452Z,100198.47
2022-10-17T06:17:16.034Z,100163.34
2022-10-17T06:19:44.842Z,100170.25
2022-10-17T06:22:11.868Z,100160.91
2022-10-17T06:24:38.461Z,100164.41
2022-10-17T06:27:09.441Z,100159.25
2022-10-17T06:29:39.114Z,100181.72
2022-10-17T06:32:06.911Z,100175.06
2022-10-17T06:34:35.280Z,100170.16
2022-10-17T06:37:01.915Z,100169.22
2022-10-17T06:39:33.813Z,100166.69
2022-10-17T06:42:01.077Z,100168.47
2022-10-17T06:44:31.582Z,100165.94
2022-10-17T06:46:58.974Z,100159.00
2022-10-17T06:49:25.810Z,100152.31
2022-10-17T06:51:52.356Z,100162.69
2022-10-17T06:54:18.969Z,100132.81
2022-10-17T06:56:45.529Z,100132.03
2022-10-17T06:59:12.150Z,100119.13
2022-10-17T07:01:40.705Z,100120.13
2022-10-17T07:04:09.800Z,100137.34
2022-10-17T07:06:36.476Z,100130.53
2022-10-17T07:09:03.390Z,100125.53
2022-10-17T07:11:29.976Z,100133.31
2022-10-17T07:13:56.505Z,100133.47
2022-10-17T07:16:23.131Z,100120.84
2022-10-17T07:18:50.773Z,100134.53
2022-10-17T07:21:17.326Z,100119.97
2022-10-17T07:23:43.893Z,100119.25
2022-10-17T07:26:11.960Z,100121.81
2022-10-17T07:28:40.332Z,100114.84
2022-10-17T07:31:08.202Z,100121.53
2022-10-17T07:33:35.041Z,100104.38
2022-10-17T07:36:01.972Z,100131.97
2022-10-17T07:38:28.882Z,100115.47
2022-10-17T07:40:59.109Z,100105.19
2022-10-17T07:43:26.269Z,100100.97
2022-10-17T07:45:53.283Z,100108.00
2022-10-17T07:48:20.241Z,100110.56
2022-10-17T07:50:46.995Z,100106.19
2022-10-17T07:53:13.737Z,100120.78
2022-10-17T07:55:41.022Z,100140.75
2022-10-17T07:58:08.726Z,100125.00
2022-10-17T08:00:36.452Z,100114.69
2022-10-17T08:03:03.764Z,100116.91
2022-10-17T08:05:30.541Z,100122.94
2022-10-17T08:07:57.465Z,100117.66
2022-10-17T08:10:28.385Z,100116.72
2022-10-17T08:12:55.315Z,100119.34
2022-10-17T08:15:22.149Z,100108.81
2022-10-17T08:17:48.968Z,100094.94
2022-10-17T08:20:15.873Z,100105.34
2022-10-17T08:22:42.424Z,100084.59
2022-10-17T08:25:09.726Z,100074.34
2022-10-17T08:27:36.347Z,100079.56
2022-10-17T08:30:02.901Z,100077.19
2022-10-17T08:32:31.011Z,100074.56
2022-10-17T08:34:57.864Z,100053.19
2022-10-17T08:37:24.485Z,100080.66
2022-10-17T08:39:51.085Z,100074.69
2022-10-17T08:42:20.602Z,100094.53
2022-10-17T08:44:53.023Z,100102.34
2022-10-17T08:47:38.022Z,100109.31
2022-10-17T08:50:06.536Z,100132.59
2022-10-17T08:52:46.684Z,100083.59
2022-10-17T08:55:31.952Z,100094.91
2022-10-17T08:57:58.545Z,100112.97
2022-10-17T09:00:25.516Z,100106.97
2022-10-17T09:03:14.659Z,100150.59
2022-10-17T09:05:50.026Z,100151.31
2022-10-17T09:08:16.597Z,100124.50
2022-10-17T09:10:52.003Z,100103.78
2022-10-17T09:16:08.641Z,100098.69
2022-10-17T09:18:38.156Z,100105.13
2022-10-17T09:21:40.435Z,100081.78
2022-10-17T09:24:15.826Z,100090.00
2022-10-17T09:26:44.400Z,100094.66
2022-10-17T09:29:17.211Z,100092.34
2022-10-17T09:32:03.691Z,100089.50
2022-10-17T09:34:32.299Z,100119.16
2022-10-17T09:37:00.261Z,100118.28
2022-10-17T09:39:29.206Z,100106.16
2022-10-17T09:41:57.276Z,100106.28
2022-10-17T09:44:25.036Z,100107.91
2022-10-17T09:47:03.716Z,100074.53
2022-10-17T09:49:34.703Z,100053.19
2022-10-17T09:52:02.936Z,100073.06
2022-10-17T09:54:36.386Z,100062.75
2022-10-17T09:57:04.302Z,100056.97
2022-10-17T09:59:32.249Z,100063.78
2022-10-17T10:02:13.943Z,100052.78
2022-10-17T10:05:09.032Z,100051.94
2022-10-17T10:07:37.804Z,100056.34
2022-10-17T10:10:06.501Z,100037.53
2022-10-17T10:12:34.626Z,100040.09
2022-10-17T10:15:01.325Z,100029.03
2022-10-17T10:17:29.818Z,100026.41
2022-10-17T10:19:56.529Z,100018.66
2022-10-17T10:22:25.704Z,100052.13
2022-10-17T10:25:10.960Z,100042.94
2022-10-17T10:27:39.982Z,100037.78
2022-10-17T10:30:07.193Z,100028.50
2022-10-17T10:32:35.355Z,100013.03
2022-10-17T10:35:01.998Z,100022.41
2022-10-17T10:37:30.171Z,100005.38
2022-10-17T10:40:01.387Z,100000.28
2022-10-17T10:42:33.071Z,100007.25
2022-10-17T10:45:42.912Z,100000.53
2022-10-17T10:48:18.448Z,99998.84
2022-10-17T10:50:47.099Z,99997.13
2022-10-17T10:53:30.756Z,100005.75
2022-10-17T10:56:11.090Z,100013.53
2022-10-17T10:58:42.068Z,100020.38
2022-10-17T11:01:15.089Z,100010.19
2022-10-17T11:03:50.110Z,100002.47
2022-10-17T11:06:20.087Z,99979.31
2022-10-17T11:09:03.063Z,99984.56
2022-10-17T11:11:34.495Z,99988.97
2022-10-17T11:14:08.072Z,99968.38
2022-10-17T11:16:53.963Z,99971.00
2022-10-17T11:19:20.496Z,99975.34
2022-10-17T11:21:48.411Z,99994.22
2022-10-17T11:24:24.873Z,99989.88
2022-10-17T11:26:58.714Z,99997.66
2022-10-17T11:29:29.262Z,100007.09
2022-10-17T11:31:57.522Z,99966.78
2022-10-17T11:34:29.475Z,99957.38
2022-10-17T11:37:02.670Z,99956.53
2022-10-17T11:39:51.720Z,99958.31
2022-10-17T11:42:21.115Z,99975.31
2022-10-17T11:44:50.584Z,99983.94
2022-10-17T11:47:26.575Z,99959.19
2022-10-17T11:49:57.457Z,99968.66
2022-10-17T11:52:55.957Z,99973.75
2022-10-17T11:55:24.129Z,99977.22
2022-10-17T11:57:56.954Z,99978.97
2022-10-17T12:00:26.544Z,99941.09
2022-10-17T12:03:11.640Z,99935.22
2022-10-17T12:05:57.225Z,99931.81
2022-10-17T12:08:42.571Z,99921.50
2022-10-17T12:11:34.537Z,99928.41
2022-10-17T12:14:05.929Z,99924.16
2022-10-17T12:16:35.593Z,99924.09
2022-10-17T12:19:02.248Z,99924.16
2022-10-17T12:21:31.477Z,99912.16
2022-10-17T12:23:58.843Z,99922.53
2022-10-17T12:26:26.611Z,99911.31
2022-10-17T12:28:53.481Z,99931.06
2022-10-17T12:31:21.741Z,99914.06
2022-10-17T12:33:49.954Z,99897.75
2022-10-17T12:36:22.140Z,99906.31
2022-10-17T12:38:50.299Z,99927.88
2022-10-17T12:41:17.732Z,99917.56
2022-10-17T12:43:45.760Z,99914.09
2022-10-17T12:46:12.512Z,99903.88
2022-10-17T12:48:42.042Z,99921.97
2022-10-17T12:51:34.388Z,99924.34
2022-10-17T12:54:00.809Z,99936.44
2022-10-17T12:56:46.711Z,99952.81
2022-10-17T12:59:16.706Z,99938.34
2022-10-17T13:01:48.463Z,99932.31
2022-10-17T13:04:15.541Z,99934.91
2022-10-17T13:06:46.463Z,99939.22
2022-10-17T13:09:25.310Z,99955.53
2022-10-17T13:11:52.691Z,99941.03
2022-10-17T13:14:20.881Z,99984.81
2022-10-17T13:16:55.005Z,99984.88
2022-10-17T13:19:23.862Z,99978.03
2022-10-17T13:21:56.042Z,100009.81
2022-10-17T13:24:28.674Z,100003.09
2022-10-17T13:26:55.239Z,100004.88
2022-10-17T13:29:23.473Z,100018.59
2022-10-17T13:31:54.699Z,100037.53
2022-10-17T13:34:22.746Z,100034.97
2022-10-17T13:36:52.511Z,100010.94
2022-10-17T13:39:32.355Z,100004.94
2022-10-17T13:42:05.514Z,99998.94
2022-10-17T13:44:33.708Z,99985.41
2022-10-17T13:47:00.695Z,99988.81
2022-10-17T13:49:41.105Z,99989.72
2022-10-17T13:52:15.234Z,99994.09
2022-10-17T13:54:42.726Z,99982.03
2022-10-17T13:57:23.764Z,99992.38
2022-10-17T13:59:51.916Z,99983.00
2022-10-17T14:02:26.793Z,99967.53
2022-10-17T14:05:16.768Z,99942.66
2022-10-17T14:10:41.291Z,99957.31
2022-10-17T14:13:17.706Z,99941.88
2022-10-17T14:15:45.941Z,99953.03
2022-10-17T14:18:20.811Z,99963.34
2022-10-17T14:21:29.191Z,99944.47
2022-10-17T14:23:39.067Z,99941.03
2022-10-17T14:26:06.271Z,99934.22
2022-10-17T14:28:33.674Z,99935.91
2022-10-17T14:31:17.351Z,99955.72
2022-10-17T14:33:48.246Z,99945.34
2022-10-17T14:36:17.500Z,99939.31
2022-10-17T14:38:50.183Z,99949.59
2022-10-17T14:44:18.889Z,99941.84
2022-10-17T14:46:50.549Z,99959.00
2022-10-17T14:49:24.343Z,99971.03
2022-10-17T14:52:15.251Z,99965.09
2022-10-17T14:54:48.871Z,99952.16
2022-10-17T14:57:17.589Z,99962.50
2022-10-17T14:59:59.662Z,99953.03
2022-10-17T15:02:27.485Z,99953.03
2022-10-17T15:04:54.584Z,99950.47
2022-10-17T15:07:21.558Z,99958.22
2022-10-17T15:09:48.971Z,99956.47
2022-10-17T15:12:17.312Z,99964.19
2022-10-17T15:14:44.501Z,99967.78
2022-10-17T15:17:26.402Z,99958.28
2022-10-17T15:19:53.298Z,99966.91
2022-10-17T15:22:19.925Z,99978.09
2022-10-17T15:24:46.653Z,99980.69
2022-10-17T15:27:21.367Z,99991.00
2022-10-17T15:29:48.124Z,99976.38
2022-10-17T15:32:14.773Z,99978.13
2022-10-17T15:34:41.737Z,99966.91
2022-10-17T15:37:16.472Z,99962.72
2022-10-17T15:39:43.115Z,99979.94
2022-10-17T15:42:11.940Z,99979.97
2022-10-17T15:44:38.525Z,99984.38
2022-10-17T15:47:05.573Z,99972.34
2022-10-17T15:49:33.965Z,99966.31
2022-10-17T15:52:00.537Z,99972.34
2022-10-17T15:54:27.102Z,99986.16
2022-10-17T15:56:55.013Z,99987.09
2022-10-17T15:59:25.089Z,99985.38
2022-10-17T16:01:51.739Z,99988.03
2022-10-17T16:04:18.896Z,99984.72
2022-10-17T16:06:45.568Z,99974.41
2022-10-17T16:09:12.210Z,99984.81
2022-10-17T16:11:43.268Z,99974.41
2022-10-17T16:14:16.517Z,99969.34
2022-10-17T16:16:43.396Z,99967.63
2022-10-17T16:19:10.004Z,99969.34
2022-10-17T16:21:38.182Z,99976.25
2022-10-17T16:24:04.997Z,99973.63
2022-10-17T16:26:31.794Z,99966.78
2022-10-17T16:29:02.734Z,99994.31
2022-10-17T16:31:34.651Z,99986.66
2022-10-17T16:34:02.368Z,99997.88
2022-10-17T16:36:28.974Z,99985.91
2022-10-17T16:38:55.716Z,99980.78
2022-10-17T16:41:30.147Z,99992.03
2022-10-17T16:43:58.095Z,99997.28
2022-10-17T16:46:25.723Z,99986.94
2022-10-17T16:48:52.503Z,99992.09
2022-10-17T16:51:20.091Z,99988.66
2022-10-17T16:53:47.431Z,99993.84
2022-10-17T16:56:15.651Z,99985.22
2022-10-17T16:58:42.632Z,99988.72
2022-10-17T17:01:10.749Z,99998.13
2022-10-17T17:03:38.517Z,99993.84
2022-10-17T17:06:06.612Z,99995.66
2022-10-17T17:08:33.967Z,100005.06
2022-10-17T17:11:00.502Z,99995.66
2022-10-17T17:13:28.156Z,100021.44
2022-10-17T17:16:02.246Z,100005.97
2022-10-17T17:18:28.854Z,99994.75
2022-10-17T17:21:02.308Z,100008.59
2022-10-17T17:23:29.618Z,100001.81
2022-10-17T17:26:00.436Z,100005.25
2022-10-17T17:28:27.910Z,100016.41
2022-10-17T17:30:55.238Z,99984.59
2022-10-17T17:33:22.887Z,99984.63
2022-10-17T17:35:55.134Z,99976.06
2022-10-17T17:38:21.697Z,100027.72
2022-10-17T17:40:50.749Z,99984.66
2022-10-17T17:43:18.272Z,99996.72
2022-10-17T17:45:44.802Z,100010.50
2022-10-17T17:48:12.311Z,99990.72
2022-10-17T17:50:40.227Z,100011.38
2022-10-17T17:53:07.522Z,100002.75
2022-10-17T17:55:34.448Z,100001.97
2022-10-17T17:58:01.102Z,100013.13
2022-10-17T18:00:27.764Z,99995.09
2022-10-17T18:02:54.534Z,99989.97
2022-10-17T18:05:21.144Z,100002.00
2022-10-17T18:07:47.965Z,100009.75
2022-10-17T18:12:42.231Z,99994.25
2022-10-17T18:15:09.045Z,99994.19
2022-10-17T18:17:35.611Z,99994.25
2022-10-17T18:20:03.513Z,99989.00
2022-10-17T18:22:30.443Z,100007.97
2022-10-17T18:24:57.352Z,100002.84
2022-10-17T18:27:23.953Z,100002.00
2022-10-17T18:29:51.225Z,100011.47
2022-10-17T18:32:17.916Z,100003.69
2022-10-17T18:34:44.649Z,100014.91
2022-10-17T18:37:11.376Z,100002.84
2022-10-17T18:39:37.975Z,100000.28
2022-10-17T18:42:04.540Z,100005.47
2022-10-17T18:44:31.274Z,100001.97
2022-10-17T18:47:02.946Z,99996.81
2022-10-17T18:49:31.068Z,100052.78
2022-10-17T18:51:57.708Z,100022.63
2022-10-17T18:54:24.503Z,100017.53
2022-10-17T18:56:52.511Z,100019.19
2022-10-17T18:59:19.904Z,100028.66
2022-10-17T19:01:46.990Z,100028.72
2022-10-17T19:04:13.903Z,100024.38
2022-10-17T19:06:41.076Z,100024.34
2022-10-17T19:09:08.435Z,100015.72
2022-10-17T19:11:36.200Z,100039.09
2022-10-17T19:14:04.222Z,100033.84
2022-10-17T19:16:32.712Z,100035.56
2022-10-17T19:19:01.924Z,100020.06
2022-10-17T19:21:28.680Z,100018.34
2022-10-17T19:23:56.842Z,100022.69
2022-10-17T19:26:23.875Z,100032.97
2022-10-17T19:28:53.460Z,100029.53
2022-10-17T19:31:26.264Z,100026.03
2022-10-17T19:33:53.598Z,100026.06
2022-10-17T19:36:21.550Z,100043.28
2022-10-17T19:38:48.628Z,100009.75
2022-10-17T19:41:16.155Z,100032.09
2022-10-17T19:43:43.480Z,100039.88
2022-10-17T19:46:14.719Z,100032.97
2022-10-17T19:48:41.586Z,100019.19
2022-10-17T19:51:08.855Z,100040.66
2022-10-17T19:53:35.384Z,100032.97
2022-10-17T19:56:02.236Z,100032.91
2022-10-17T19:58:28.945Z,100023.44
2022-10-17T20:00:57.213Z,100038.09
2022-10-17T20:03:24.973Z,100028.56
2022-10-17T20:05:51.797Z,100028.53
2022-10-17T20:08:18.489Z,100026.00
2022-10-17T20:10:46.089Z,100027.72
2022-10-17T20:13:13.461Z,100030.28
2022-10-17T20:15:40.447Z,100035.47
2022-10-17T20:18:07.326Z,100033.69
2022-10-17T20:20:34.856Z,100033.69
2022-10-17T20:23:02.144Z,100037.06
2022-10-17T20:25:28.764Z,100022.44
2022-10-17T20:27:55.318Z,100031.09
2022-10-17T20:30:21.916Z,100035.41
2022-10-17T20:32:48.508Z,100040.56
2022-10-17T20:35:15.117Z,100054.31
2022-10-17T20:37:42.807Z,100037.97
2022-10-17T20:40:34.180Z,100052.66
2022-10-17T20:42:56.525Z,100043.22
2022-10-17T20:45:37.379Z,100045.88
2022-10-17T20:48:14.811Z,100040.63
2022-10-17T20:50:42.242Z,100042.41
2022-10-17T20:53:35.009Z,100046.69
2022-10-17T20:56:06.328Z,100045.88
2022-10-17T20:58:33.166Z,100044.16
2022-10-17T21:01:04.518Z,100050.19
2022-10-17T21:03:31.167Z,100050.19
2022-10-17T21:05:57.762Z,100043.25
2022-10-17T21:08:24.328Z,100040.69
2022-10-17T21:10:50.887Z,100032.06
2022-10-17T21:13:17.462Z,100040.66
2022-10-17T21:15:44.053Z,100036.38
2022-10-17T21:18:10.643Z,100044.97
2022-10-17T21:20:37.752Z,100037.22
2022-10-17T21:23:04.306Z,100029.47
2022-10-17T21:25:30.891Z,100030.31
2022-10-17T21:27:57.425Z,100027.75
2022-10-17T21:30:23.990Z,100029.44
2022-10-17T21:32:53.314Z,100023.41
2022-10-17T21:35:20.090Z,100027.72
2022-10-17T21:37:46.713Z,100009.59
2022-10-17T21:40:13.445Z,100034.56
2022-10-17T21:42:40.037Z,100009.56
2022-10-17T21:45:15.005Z,100023.34
2022-10-17T21:47:54.935Z,100016.44
2022-10-17T21:50:27.724Z,100013.03
2022-10-17T21:52:54.289Z,100026.84
2022-10-17T21:55:20.837Z,100024.22
2022-10-17T21:57:47.722Z,100016.50
2022-10-17T22:00:14.439Z,100018.22
2022-10-17T22:02:41.016Z,100011.34
2022-10-17T22:05:07.774Z,99999.31
2022-10-17T22:07:34.371Z,100006.22
2022-10-17T22:10:00.953Z,100004.47
2022-10-17T22:12:27.740Z,100000.13
2022-10-17T22:14:54.399Z,100001.91
2022-10-17T22:17:20.951Z,99997.59
2022-10-17T22:19:47.507Z,99988.16
2022-10-17T22:22:14.096Z,99990.72
2022-10-17T22:24:40.664Z,99987.28
2022-10-17T22:27:09.767Z,99995.03
2022-10-17T22:29:36.672Z,99988.97
2022-10-17T22:32:03.237Z,99995.88
2022-10-17T22:34:30.179Z,99988.09
2022-10-17T22:36:56.730Z,99995.88
2022-10-17T22:39:23.316Z,99992.41
2022-10-17T22:41:49.935Z,99999.28
2022-10-17T22:44:16.466Z,99992.38
2022-10-17T22:46:43.034Z,99988.94
2022-10-17T22:49:09.636Z,99993.28
2022-10-17T22:51:36.289Z,99989.78
2022-10-17T22:54:02.947Z,100000.13
2022-10-17T22:56:29.580Z,99978.59
2022-10-17T22:58:56.128Z,99987.19
2022-10-17T23:01:23.454Z,99970.88
2022-10-17T23:03:50.824Z,99975.16
2022-10-17T23:06:17.451Z,99975.16
2022-10-17T23:08:44.337Z,99991.47
2022-10-17T23:11:11.123Z,99973.38
2022-10-17T23:13:38.106Z,99971.66
2022-10-17T23:16:04.976Z,99976.81
2022-10-17T23:21:03.058Z,99963.03
2022-10-17T23:23:29.602Z,99971.59
2022-10-17T23:26:02.697Z,99977.63
2022-10-17T23:28:29.355Z,99972.44
2022-10-17T23:30:55.974Z,99975.03
2022-10-17T23:33:22.527Z,99973.28
2022-10-17T23:35:49.095Z,99974.09
2022-10-17T23:38:15.611Z,99983.53
2022-10-17T23:40:42.272Z,99974.06
2022-10-17T23:43:08.823Z,99977.44
2022-10-17T23:45:37.221Z,99975.69
2022-10-17T23:48:04.738Z,99986.00
2022-10-17T23:50:31.315Z,99988.56
2022-10-17T23:52:57.892Z,99985.09
2022-10-17T23:55:24.510Z,99968.03
2022-10-17T23:57:51.061Z,99975.63
